Time;durP1;ratioP1;P1;durP2;ratioP2;P2;SDS_P1;SDS_P2;PMS_P1;PMS_P2;Temp;Humidity;BMP_temperature;BMP_pressure;BME280_temperature;BME280_humidity;BME280_pressure;Samples;Min_cycle;Max_cycle;Signal;HPM_P1;HPM_P2
2023/04/21 00:00:52;;;;;;;10.48;8.63;;;;;;;6.70;100.00;100891.28;7786220;18;19990;-72
2023/04/21 00:03:21;;;;;;;10.27;9.23;;;;;;;5.96;100.00;100781.56;7786591;18;20002;-72
2023/04/21 00:05:49;;;;;;;12.15;10.07;;;;;;;6.60;100.00;100882.06;7787868;18;20025;-73
2023/04/21 00:08:17;;;;;;;8.82;7.78;;;;;;;6.62;100.00;100882.84;7788127;18;20461;-71
2023/04/21 00:10:45;;;;;;;15.57;10.35;;;;;;;6.26;100.00;100811.91;7746167;18;20006;-72
2023/04/21 00:13:12;;;;;;;11.90;10.55;;;;;;;6.56;100.00;100851.78;7791662;18;20068;-70
2023/04/21 00:15:39;;;;;;;13.07;9.02;;;;;;;5.91;100.00;100759.13;7749127;18;19994;-73
2023/04/21 00:18:08;;;;;;;11.32;9.23;;;;;;;6.57;100.00;100843.91;7791408;18;20060;-73
2023/04/21 00:20:35;;;;;;;12.15;9.35;;;;;;;6.64;100.00;100861.94;7787445;18;20009;-72
2023/04/21 00:23:02;;;;;;;11.68;9.32;;;;;;;6.30;100.00;100809.16;7744794;18;20022;-72
2023/04/21 00:25:29;;;;;;;11.63;9.30;;;;;;;6.42;100.00;100830.53;7790199;18;20597;-72
2023/04/21 00:27:55;;;;;;;11.48;8.32;;;;;;;6.61;100.00;100862.88;7792302;18;20708;-71
2023/04/21 00:30:22;;;;;;;11.73;8.95;;;;;;;6.62;100.00;100856.78;7788919;18;20407;-73
2023/04/21 00:32:48;;;;;;;12.85;9.70;;;;;;;6.64;100.00;100865.41;7787769;18;20002;-73
2023/04/21 00:35:14;;;;;;;12.07;10.70;;;;;;;6.28;100.00;100795.31;7789441;18;19998;-72
2023/04/21 00:37:41;;;;;;;13.38;9.68;;;;;;;6.66;100.00;100853.16;7747411;18;20280;-74
2023/04/21 00:40:08;;;;;;;12.68;9.15;;;;;;;6.67;100.00;100847.03;7787756;18;20017;-72
2023/04/21 00:42:35;;;;;;;11.18;8.77;;;;;;;5.53;100.00;100670.94;7747253;18;20584;-72
2023/04/21 00:45:03;;;;;;;28.20;11.20;;;;;;;5.99;100.00;100741.53;7745518;18;20009;-72
2023/04/21 00:47:30;;;;;;;10.75;9.35;;;;;;;6.29;100.00;100783.13;7788580;18;20005;-72
2023/04/21 00:49:59;;;;;;;12.75;8.98;;;;;;;6.53;100.00;100828.38;7746471;18;19998;-74
2023/04/21 00:52:27;;;;;;;9.80;8.73;;;;;;;6.70;100.00;100841.72;7786485;18;20004;-73
2023/04/21 00:54:55;;;;;;;10.82;8.15;;;;;;;6.01;100.00;100731.06;7788774;18;20061;-72
2023/04/21 00:57:22;;;;;;;9.10;8.13;;;;;;;6.65;100.00;100843.63;7752030;18;20069;-72
2023/04/21 00:59:49;;;;;;;13.90;9.23;;;;;;;6.51;100.00;100822.38;7788466;18;20191;-71
2023/04/21 01:02:16;;;;;;;11.70;9.82;;;;;;;6.55;100.00;100834.41;7748192;18;20185;-73
2023/04/21 01:04:44;;;;;;;16.23;10.05;;;;;;;6.63;100.00;100834.16;7787990;18;20376;-73
2023/04/21 01:07:10;;;;;;;13.13;8.68;;;;;;;6.29;100.00;100777.91;7749141;18;20477;-71
2023/04/21 01:09:37;;;;;;;9.50;8.57;;;;;;;6.43;100.00;100795.72;7788430;18;20024;-72
2023/04/21 01:12:04;;;;;;;9.85;8.82;;;;;;;6.67;100.00;100856.63;7788956;18;20447;-72
2023/04/21 01:14:31;;;;;;;11.65;9.73;;;;;;;6.68;100.00;100842.69;7787670;18;20286;-72
2023/04/21 01:16:58;;;;;;;12.68;9.57;;;;;;;6.22;100.00;100771.22;7790861;18;20056;-72
2023/04/21 01:19:27;;;;;;;15.45;10.90;;;;;;;6.68;100.00;100840.94;7787751;18;20063;-73
2023/04/21 01:21:56;;;;;;;11.00;9.00;;;;;;;6.32;100.00;100775.22;7787751;18;20175;-72
2023/04/21 01:24:26;;;;;;;14.13;10.23;;;;;;;6.67;100.00;100833.16;7744667;18;20006;-72
2023/04/21 01:26:52;;;;;;;13.13;9.60;;;;;;;6.67;100.00;100833.16;7748084;18;20411;-72
2023/04/21 01:29:19;;;;;;;14.30;10.77;;;;;;;6.67;100.00;100827.94;7747571;18;20256;-72
2023/04/21 01:31:46;;;;;;;10.32;9.15;;;;;;;6.56;100.00;100818.72;7789120;18;20060;-72
2023/04/21 01:34:13;;;;;;;17.33;11.07;;;;;;;6.66;100.00;100828.84;7786627;18;20492;-72
2023/04/21 01:36:39;;;;;;;11.57;9.55;;;;;;;6.43;100.00;100804.38;7788330;18;20414;-72
2023/04/21 01:39:06;;;;;;;11.20;8.50;;;;;;;6.63;100.00;100824.56;7786947;18;20007;-73
2023/04/21 01:41:32;;;;;;;13.48;9.38;;;;;;;6.64;100.00;100826.28;7788032;18;20492;-72
2023/04/21 01:43:59;;;;;;;19.25;11.05;;;;;;;6.52;100.00;100805.84;7787583;18;20018;-73
2023/04/21 01:46:26;;;;;;;14.20;8.07;;;;;;;6.64;100.00;100831.50;7746878;18;20009;-71
2023/04/21 01:48:53;;;;;;;11.75;8.82;;;;;;;6.66;100.00;100834.91;7787108;18;19998;-72
2023/04/21 01:51:19;;;;;;;15.25;10.45;;;;;;;6.68;100.00;100834.88;7788320;18;20075;-72
2023/04/21 01:53:46;;;;;;;17.67;10.40;;;;;;;6.70;100.00;100836.50;7787195;18;20292;-73
2023/04/21 01:56:13;;;;;;;13.45;9.98;;;;;;;6.72;100.00;100841.69;7788211;18;20018;-71
2023/04/21 01:58:40;;;;;;;14.15;10.52;;;;;;;6.58;100.00;100818.69;7787318;18;20015;-72
2023/04/21 02:01:06;;;;;;;13.52;9.30;;;;;;;6.74;100.00;100845.94;7788151;18;20064;-72
2023/04/21 02:03:33;;;;;;;21.90;11.25;;;;;;;6.75;100.00;100854.59;7787515;18;20068;-72
2023/04/21 02:06:00;;;;;;;10.60;9.50;;;;;;;6.61;100.00;100830.75;7787408;18;20005;-72
2023/04/21 02:08:26;;;;;;;14.98;9.73;;;;;;;5.52;100.00;100643.19;7786561;18;20032;-71
2023/04/21 02:10:52;;;;;;;9.68;8.45;;;;;;;6.70;100.00;100831.28;7786406;18;20396;-70
2023/04/21 02:13:19;;;;;;;12.50;9.73;;;;;;;6.84;100.00;100861.28;7786899;18;20045;-72
2023/04/21 02:15:45;;;;;;;8.98;8.07;;;;;;;6.45;100.00;100797.34;7787809;18;20061;-72
2023/04/21 02:18:12;;;;;;;15.82;9.73;;;;;;;6.31;100.00;100752.66;7745480;18;19993;-72
2023/04/21 02:20:38;;;;;;;11.73;8.88;;;;;;;6.87;100.00;100853.34;7785227;18;20068;-72
2023/04/21 02:23:05;;;;;;;18.35;11.65;;;;;;;6.73;100.00;100827.72;7785715;18;20057;-72
2023/04/21 02:25:31;;;;;;;9.95;8.95;;;;;;;6.81;100.00;100845.72;7785096;18;20292;-72
2023/04/21 02:27:57;;;;;;;13.85;9.32;;;;;;;6.78;100.00;100849.28;7787264;18;20041;-73
2023/04/21 02:30:24;;;;;;;13.13;10.73;;;;;;;6.74;100.00;100843.31;7785105;18;20006;-72
2023/04/21 02:32:50;;;;;;;13.75;9.63;;;;;;;6.73;100.00;100835.53;7785450;18;19993;-72
2023/04/21 02:35:17;;;;;;;10.75;9.23;;;;;;;6.71;100.00;100840.81;7787539;18;20009;-73
2023/04/21 02:37:43;;;;;;;15.27;12.07;;;;;;;6.67;100.00;100844.41;7785537;18;20064;-72
2023/04/21 02:40:10;;;;;;;12.68;9.35;;;;;;;6.63;100.00;100837.59;7786401;18;20006;-73
2023/04/21 02:42:36;;;;;;;11.27;8.85;;;;;;;6.23;100.00;100778.13;7786215;18;19998;-72
2023/04/21 02:45:03;;;;;;;17.15;9.85;;;;;;;6.53;100.00;100838.81;7787175;18;20277;-73
2023/04/21 02:47:30;;;;;;;20.15;10.38;;;;;;;6.45;100.00;100831.25;7786637;18;19994;-71
2023/04/21 02:49:56;;;;;;;16.58;11.27;;;;;;;6.09;100.00;100781.19;7785254;18;20019;-72
2023/04/21 02:52:23;;;;;;;11.65;8.82;;;;;;;6.34;100.00;100839.44;7784657;18;20005;-71
2023/04/21 02:54:50;;;;;;;15.50;8.02;;;;;;;6.26;100.00;100844.03;7784976;18;20154;-72
2023/04/21 02:57:16;;;;;;;13.10;9.63;;;;;;;6.14;100.00;100840.06;7786279;18;20002;-71
2023/04/21 02:59:42;;;;;;;11.10;9.77;;;;;;;6.14;100.00;100860.91;7743420;18;20021;-72
2023/04/21 03:02:09;;;;;;;11.30;10.13;;;;;;;5.99;100.00;100837.94;7743787;18;20087;-73
2023/04/21 03:04:36;;;;;;;8.88;8.05;;;;;;;5.54;100.00;100768.94;7784871;18;19997;-71
2023/04/21 03:07:03;;;;;;;12.68;8.77;;;;;;;5.94;100.00;100851.06;7786346;18;20001;-73
2023/04/21 03:09:29;;;;;;;11.20;9.57;;;;;;;5.88;100.00;100856.47;7784352;18;20002;-73
2023/04/21 03:11:55;;;;;;;10.30;7.97;;;;;;;5.40;100.00;100803.19;7784772;18;20012;-72
2023/04/21 03:14:22;;;;;;;12.30;9.30;;;;;;;5.36;100.00;100803.34;7786533;18;20022;-71
2023/04/21 03:16:48;;;;;;;8.60;7.47;;;;;;;5.39;100.00;100804.09;7785430;18;19990;-71
2023/04/21 03:19:15;;;;;;;11.15;9.48;;;;;;;5.65;100.00;100858.91;7782948;18;20288;-71
2023/04/21 03:21:41;;;;;;;16.00;9.80;;;;;;;5.65;100.00;100864.09;7785383;18;19993;-71
2023/04/21 03:24:08;;;;;;;16.00;10.65;;;;;;;4.42;100.00;100659.50;7784605;18;20257;-71
2023/04/21 03:26:34;;;;;;;13.98;9.32;;;;;;;5.63;100.00;100853.72;7783525;18;20395;-72
2023/04/21 03:29:01;;;;;;;11.07;10.00;;;;;;;5.71;100.00;100871.72;7785001;18;20431;-74
2023/04/21 03:31:27;;;;;;;18.17;10.55;;;;;;;5.72;100.00;100865.66;7785750;18;20254;-71
2023/04/21 03:33:54;;;;;;;12.90;10.18;;;;;;;5.07;100.00;100765.13;7784802;18;20006;-71
2023/04/21 03:36:20;;;;;;;9.85;8.82;;;;;;;5.30;100.00;100826.94;7785667;18;20374;-71
2023/04/21 03:38:46;;;;;;;10.35;8.95;;;;;;;5.56;100.00;100866.06;7784931;18;20001;-71
2023/04/21 03:41:13;;;;;;;12.13;8.10;;;;;;;5.02;100.00;100778.28;7786163;18;20196;-74
2023/04/21 03:43:39;;;;;;;12.80;8.68;;;;;;;5.19;100.00;100822.88;7785970;18;20014;-71
2023/04/21 03:46:06;;;;;;;9.60;7.00;;;;;;;5.55;100.00;100877.41;7788758;18;20078;-72
2023/04/21 03:48:32;;;;;;;11.68;9.02;;;;;;;5.57;100.00;100877.34;7784958;18;19997;-73
2023/04/21 03:50:59;;;;;;;11.77;8.65;;;;;;;5.17;100.00;100806.47;7787083;18;20010;-71
2023/04/21 03:53:25;;;;;;;12.40;9.05;;;;;;;4.27;100.00;100658.16;7785393;18;20322;-70
2023/04/21 03:55:52;;;;;;;8.98;8.20;;;;;;;5.64;100.00;100873.66;7745277;18;20001;-73
2023/04/21 03:58:18;;;;;;;16.10;9.57;;;;;;;5.68;100.00;100882.25;7786407;18;20003;-73
2023/04/21 04:00:45;;;;;;;17.27;11.75;;;;;;;5.60;100.00;100862.50;7786275;18;20018;-73
2023/04/21 04:03:11;;;;;;;15.45;8.93;;;;;;;5.68;100.00;100869.22;7785634;18;20001;-72
2023/04/21 04:05:38;;;;;;;9.50;8.70;;;;;;;5.60;100.00;100865.09;7746213;18;20304;-71
2023/04/21 04:08:05;;;;;;;12.73;9.63;;;;;;;5.59;100.00;100875.53;7785981;18;19998;-72
2023/04/21 04:10:31;;;;;;;13.48;9.32;;;;;;;5.19;100.00;100820.28;7785840;18;20061;-74
2023/04/21 04:12:58;;;;;;;9.35;8.20;;;;;;;5.49;100.00;100869.78;7786588;18;21653;-72
2023/04/21 04:15:24;;;;;;;8.98;7.38;;;;;;;5.44;100.00;100874.25;7787426;18;20002;-74
2023/04/21 04:17:51;;;;;;;8.80;7.93;;;;;;;4.75;100.00;100767.75;7787278;18;20078;-73
2023/04/21 04:20:17;;;;;;;12.88;9.80;;;;;;;5.35;100.00;100870.16;7785657;18;20392;-73
2023/04/21 04:22:43;;;;;;;9.82;8.05;;;;;;;5.32;100.00;100872.81;7787527;18;19998;-73
2023/04/21 04:25:11;;;;;;;9.18;8.25;;;;;;;5.29;100.00;100875.53;7787510;18;20186;-73
2023/04/21 04:27:38;;;;;;;10.73;8.38;;;;;;;4.76;100.00;100805.84;7786358;18;20412;-73
2023/04/21 04:30:05;;;;;;;9.00;7.45;;;;;;;5.23;100.00;100877.41;7787025;18;20373;-73
2023/04/21 04:32:32;;;;;;;11.77;8.25;;;;;;;5.21;100.00;100880.06;7787002;18;20073;-73
2023/04/21 04:35:01;;;;;;;11.93;9.07;;;;;;;4.70;100.00;100797.34;7786736;18;20347;-68
2023/04/21 04:37:27;;;;;;;9.43;8.10;;;;;;;5.22;100.00;100875.72;7786933;18;19998;-72
2023/04/21 04:39:54;;;;;;;10.55;8.38;;;;;;;5.20;100.00;100873.16;7786281;18;20490;-69
2023/04/21 04:42:20;;;;;;;13.15;8.98;;;;;;;5.12;100.00;100869.91;7787510;18;20214;-68
2023/04/21 04:44:47;;;;;;;11.25;7.15;;;;;;;5.17;100.00;100878.44;7786179;18;20135;-69
2023/04/21 04:47:13;;;;;;;9.20;8.30;;;;;;;5.19;100.00;100884.44;7745162;18;20129;-69
2023/04/21 04:49:39;;;;;;;15.20;9.52;;;;;;;5.23;100.00;100877.41;7743994;18;20067;-70
2023/04/21 04:52:07;;;;;;;9.35;8.55;;;;;;;5.23;100.00;100859.22;7787227;18;20352;-68
2023/04/21 04:54:33;;;;;;;14.88;9.07;;;;;;;5.35;100.00;100877.97;7785219;18;20700;-72
2023/04/21 04:57:00;;;;;;;11.98;7.78;;;;;;;5.39;100.00;100882.19;7786790;18;20023;-69
2023/04/21 04:59:26;;;;;;;12.70;10.10;;;;;;;5.44;100.00;100883.81;7786328;18;19998;-69
2023/04/21 05:01:56;;;;;;;11.73;7.88;;;;;;;5.43;100.00;100874.28;7786573;18;20001;-69
2023/04/21 05:04:22;;;;;;;9.00;8.05;;;;;;;5.55;100.00;100877.41;7785578;18;20006;-72
2023/04/21 05:06:49;;;;;;;11.90;8.52;;;;;;;5.19;100.00;100803.81;7787588;18;20162;-70
2023/04/21 05:09:16;;;;;;;9.35;8.32;;;;;;;5.80;100.00;100892.31;7786553;18;19998;-70
2023/04/21 05:11:42;;;;;;;10.20;9.20;;;;;;;5.86;100.00;100875.66;7786939;18;20218;-71
2023/04/21 05:14:08;;;;;;;12.93;9.30;;;;;;;6.06;100.00;100880.28;7785202;18;20056;-71
2023/04/21 05:16:35;;;;;;;9.00;7.97;;;;;;;6.27;100.00;100895.25;7788190;18;20062;-70
2023/04/21 05:19:02;;;;;;;14.15;10.00;;;;;;;6.34;100.00;100917.63;7785398;18;20014;-72
2023/04/21 05:21:30;;;;;;;10.73;8.52;;;;;;;6.39;100.00;100901.84;7787015;18;20064;-70
2023/04/21 05:23:57;;;;;;;7.75;7.13;;;;;;;6.40;100.00;100900.94;7787122;18;19998;-70
2023/04/21 05:26:26;;;;;;;12.55;9.13;;;;;;;6.39;100.00;100902.72;7787958;18;20056;-70
2023/04/21 05:28:54;;;;;;;13.77;9.75;;;;;;;6.44;100.00;100906.91;7784917;18;20008;-71
2023/04/21 05:31:22;;;;;;;13.55;10.55;;;;;;;6.52;100.00;100894.50;7787679;18;19990;-71
2023/04/21 05:33:49;;;;;;;12.50;9.73;;;;;;;6.63;100.00;100926.28;7786389;18;19998;-70
2023/04/21 05:36:15;;;;;;;13.65;9.23;;;;;;;6.66;100.00;100905.31;7744230;18;19997;-70
2023/04/21 05:38:42;;;;;;;15.18;9.10;;;;;;;6.74;100.00;100902.47;7785970;18;20021;-71
2023/04/21 05:41:09;;;;;;;12.82;9.43;;;;;;;6.72;100.00;100901.66;7745701;18;20454;-70
2023/04/21 05:43:35;;;;;;;13.40;10.82;;;;;;;5.63;100.00;100715.75;7785539;18;20292;-72
2023/04/21 05:46:07;;;;;;;16.63;11.43;;;;;;;6.93;100.00;100900.94;7787011;18;20010;-72
2023/04/21 05:48:34;;;;;;;19.50;9.45;;;;;;;6.06;100.00;100783.91;7786434;18;20061;-70
2023/04/21 05:51:14;;;;;;;12.55;9.00;;;;;;;6.83;100.00;100907.38;7787652;18;20068;-70
2023/04/21 05:53:42;;;;;;;12.82;10.10;;;;;;;6.87;100.00;100908.13;7785053;18;20006;-71
2023/04/21 05:56:09;;;;;;;11.70;9.80;;;;;;;6.84;100.00;100903.03;7786128;18;20388;-71
2023/04/21 05:58:36;;;;;;;11.45;9.45;;;;;;;6.81;100.00;100898.75;7785297;18;20228;-72
2023/04/21 06:01:03;;;;;;;11.05;8.75;;;;;;;6.79;100.00;100908.38;7786533;18;20058;-71
2023/04/21 06:03:30;;;;;;;14.05;11.10;;;;;;;6.66;100.00;100887.06;7785566;18;20002;-69
2023/04/21 06:06:01;;;;;;;17.25;10.98;;;;;;;6.86;100.00;100903.81;7785752;18;20004;-69
2023/04/21 06:08:28;;;;;;;11.63;8.95;;;;;;;6.88;100.00;100895.03;7784821;18;20437;-71
2023/04/21 06:10:54;;;;;;;13.68;11.07;;;;;;;6.88;100.00;100899.41;7784858;18;20002;-70
2023/04/21 06:13:21;;;;;;;11.48;8.25;;;;;;;6.70;100.00;100843.50;7785281;18;19994;-72
2023/04/21 06:15:47;;;;;;;19.67;10.27;;;;;;;6.79;100.00;100843.16;7786071;18;20316;-68
2023/04/21 06:18:14;;;;;;;11.02;8.98;;;;;;;7.20;100.00;100895.69;7783996;18;20664;-72
2023/04/21 06:20:41;;;;;;;18.38;9.02;;;;;;;7.27;100.00;100899.78;7785094;18;20154;-69
2023/04/21 06:23:08;;;;;;;21.15;10.00;;;;;;;7.34;100.00;100877.78;7786853;18;19998;-68
2023/04/21 06:25:35;;;;;;;15.68;9.23;;;;;;;7.44;100.00;100880.03;7745872;18;20002;-70
2023/04/21 06:28:01;;;;;;;12.10;9.43;;;;;;;7.43;100.00;100891.41;7786037;18;20009;-68
2023/04/21 06:30:28;;;;;;;11.73;9.75;;;;;;;7.51;100.00;100897.19;7784353;18;19994;-71
2023/04/21 06:32:54;;;;;;;23.63;10.98;;;;;;;7.48;100.00;100882.50;7785176;18;20340;-69
2023/04/21 06:35:20;;;;;;;10.95;8.25;;;;;;;7.64;100.00;100881.91;7786576;18;20101;-68
2023/04/21 06:37:47;;;;;;;22.35;8.82;;;;;;;7.84;100.00;100895.09;7786335;18;20001;-71
2023/04/21 06:40:15;;;;;;;13.50;9.35;;;;;;;7.84;100.00;100852.44;7786792;18;20118;-70
2023/04/21 06:42:41;;;;;;;12.40;9.75;;;;;;;8.16;100.00;100890.41;7785156;18;20005;-71
2023/04/21 06:45:08;;;;;;;12.85;10.57;;;;;;;8.32;100.00;100880.22;7786901;18;20029;-68
2023/04/21 06:47:35;;;;;;;9.77;8.85;;;;;;;7.18;100.00;100688.69;7785479;18;20057;-69
2023/04/21 06:50:05;;;;;;;13.77;8.07;;;;;;;8.44;100.00;100871.03;7790204;18;20203;-68
2023/04/21 06:52:31;;;;;;;15.52;10.30;;;;;;;8.52;100.00;100850.63;7784692;18;20482;-69
2023/04/21 06:54:58;;;;;;;17.77;9.32;;;;;;;8.52;100.00;100855.88;7785562;18;20054;-69
2023/04/21 06:57:24;;;;;;;11.18;8.27;;;;;;;8.65;100.00;100870.16;7785512;18;20071;-70
2023/04/21 06:59:51;;;;;;;13.70;8.45;;;;;;;8.77;100.00;100871.41;7785893;18;20490;-71
2023/04/21 07:02:17;;;;;;;13.52;9.15;;;;;;;8.49;100.00;100816.78;7786061;18;20024;-71
2023/04/21 07:04:43;;;;;;;10.48;8.80;;;;;;;8.84;100.00;100866.75;7784601;18;20439;-70
2023/04/21 07:07:10;;;;;;;12.40;9.45;;;;;;;8.75;100.00;100866.22;7786073;18;19998;-69
2023/04/21 07:09:36;;;;;;;11.48;8.70;;;;;;;8.85;100.00;100869.31;7784862;18;20070;-70
2023/04/21 07:12:02;;;;;;;9.07;8.10;;;;;;;8.94;100.00;100870.69;7785955;18;20279;-69
2023/04/21 07:14:29;;;;;;;18.98;9.50;;;;;;;8.99;100.00;100855.66;7785410;18;20037;-70
2023/04/21 07:16:56;;;;;;;10.25;8.55;;;;;;;9.04;100.00;100858.06;7785896;18;20556;-70
2023/04/21 07:19:22;;;;;;;10.85;9.68;;;;;;;9.07;100.00;100853.53;7783914;18;20013;-70
2023/04/21 07:21:48;;;;;;;9.63;8.30;;;;;;;9.10;100.00;100853.44;7785269;18;20139;-69
2023/04/21 07:24:15;;;;;;;11.70;10.50;;;;;;;9.17;100.00;100846.16;7784524;18;20420;-69
2023/04/21 07:26:41;;;;;;;13.55;9.65;;;;;;;9.21;100.00;100854.72;7785725;18;20006;-70
2023/04/21 07:29:08;;;;;;;17.98;11.95;;;;;;;9.32;100.00;100855.06;7782868;18;20076;-71
2023/04/21 07:31:34;;;;;;;13.02;8.45;;;;;;;9.24;100.00;100821.41;7786505;18;20233;-69
2023/04/21 07:34:01;;;;;;;16.30;10.15;;;;;;;9.25;100.00;100804.75;7784724;18;20002;-69
2023/04/21 07:36:27;;;;;;;11.13;9.60;;;;;;;9.54;100.00;100855.84;7745320;18;20076;-70
2023/04/21 07:38:56;;;;;;;17.50;8.75;;;;;;;9.59;100.00;100855.63;7782869;18;20050;-72
2023/04/21 07:41:22;;;;;;;11.98;8.88;;;;;;;9.68;100.00;100854.34;7785549;18;20270;-69
2023/04/21 07:43:49;;;;;;;10.73;8.40;;;;;;;9.96;100.00;100849.53;7785019;18;20167;-72
2023/04/21 07:46:19;;;;;;;11.93;8.23;;;;;;;10.16;100.00;100845.09;7744562;18;19994;-69
2023/04/21 07:48:45;;;;;;;12.88;9.90;;;;;;;10.36;100.00;100836.28;7785109;18;20014;-70
2023/04/21 07:51:12;;;;;;;10.25;9.27;;;;;;;10.61;100.00;100841.19;7784967;18;20008;-69
2023/04/21 07:53:38;;;;;;;14.43;10.18;;;;;;;10.78;100.00;100828.06;7742950;18;20318;-69
2023/04/21 07:56:06;;;;;;;14.63;9.88;;;;;;;10.88;100.00;100820.53;7785103;18;20008;-71
2023/04/21 07:58:32;;;;;;;12.85;10.25;;;;;;;10.71;100.00;100810.91;7784954;18;20061;-69
2023/04/21 08:00:59;;;;;;;18.80;10.02;;;;;;;10.78;100.00;100814.06;7785467;18;20009;-69
2023/04/21 08:03:25;;;;;;;15.77;9.27;;;;;;;9.25;100.00;100602.28;7785567;18;20144;-71
2023/04/21 08:05:52;;;;;;;18.38;11.77;;;;;;;10.15;100.00;100752.47;7785889;18;20264;-69
2023/04/21 08:08:20;;;;;;;14.15;10.25;;;;;;;10.62;100.00;100803.50;7785456;18;20096;-71
2023/04/21 08:10:47;;;;;;;17.20;9.40;;;;;;;10.73;100.00;100808.22;7744585;18;20491;-72
2023/04/21 08:13:13;;;;;;;13.73;10.20;;;;;;;10.63;100.00;100799.13;7784019;18;20134;-69
2023/04/21 08:15:39;;;;;;;14.50;10.48;;;;;;;10.56;100.00;100796.81;7743562;18;20528;-70
2023/04/21 08:18:07;;;;;;;12.68;9.20;;;;;;;10.60;100.00;100800.09;7784261;18;20005;-69
2023/04/21 08:20:33;;;;;;;16.38;10.25;;;;;;;10.82;100.00;100805.09;7783915;18;19998;-71
2023/04/21 08:23:00;;;;;;;14.77;10.30;;;;;;;11.07;100.00;100803.84;7785692;18;20022;-70
2023/04/21 08:25:27;;;;;;;14.35;10.13;;;;;;;11.24;100.00;100809.03;7785362;18;19998;-71
2023/04/21 08:27:53;;;;;;;13.30;9.75;;;;;;;11.29;100.00;100796.53;7786977;18;20002;-70
2023/04/21 08:30:19;;;;;;;14.93;10.98;;;;;;;10.80;100.00;100749.19;7743856;18;20002;-71
2023/04/21 08:32:46;;;;;;;12.52;9.95;;;;;;;10.91;100.00;100759.16;7786927;18;20049;-70
2023/04/21 08:35:12;;;;;;;14.70;9.38;;;;;;;11.27;100.00;100784.41;7787545;18;20022;-69
2023/04/21 08:37:39;;;;;;;15.15;8.90;;;;;;;11.43;100.00;100777.38;7787529;18;19990;-70
2023/04/21 08:40:05;;;;;;;14.07;10.23;;;;;;;11.47;100.00;100780.69;7787612;18;20434;-69
2023/04/21 08:42:33;;;;;;;10.15;7.88;;;;;;;11.60;100.00;100765.94;7785446;18;20390;-69
2023/04/21 08:44:59;;;;;;;13.88;10.13;;;;;;;11.87;100.00;100765.34;7745078;18;19997;-72
2023/04/21 08:47:27;;;;;;;18.83;10.82;;;;;;;11.79;100.00;100742.09;7787074;18;20014;-71
2023/04/21 08:49:53;;;;;;;13.85;9.80;;;;;;;11.88;100.00;100744.19;7785903;18;20057;-71
2023/04/21 08:52:20;;;;;;;15.88;11.10;;;;;;;12.20;100.00;100759.09;7786680;18;19994;-70
2023/04/21 08:54:50;;;;;;;15.75;10.20;;;;;;;12.88;100.00;100762.06;7786033;18;20492;-69
2023/04/21 08:57:18;;;;;;;16.33;10.68;;;;;;;12.85;97.12;100706.94;7787902;18;20009;-71
2023/04/21 08:59:44;;;;;;;14.00;10.85;;;;;;;13.04;93.27;100701.38;7785984;18;19994;-70
2023/04/21 09:02:14;;;;;;;15.10;9.70;;;;;;;12.24;90.84;100552.75;7786911;18;20464;-71
2023/04/21 09:04:43;;;;;;;16.38;10.10;;;;;;;12.92;90.42;100660.81;7785882;18;20057;-70
2023/04/21 09:07:11;;;;;;;11.60;9.45;;;;;;;12.97;91.63;100668.47;7790763;18;20138;-70
2023/04/21 09:09:54;;;;;;;11.13;8.88;;;;;;;12.73;91.57;100608.47;7746225;18;20349;-69
2023/04/21 09:12:21;;;;;;;15.80;9.57;;;;;;;12.83;90.35;100623.69;7787927;18;20002;-70
2023/04/21 09:14:47;;;;;;;19.73;12.30;;;;;;;13.16;89.01;100661.06;7785424;18;20036;-71
2023/04/21 09:17:16;;;;;;;11.52;10.30;;;;;;;13.18;89.09;100656.53;7789064;18;20081;-69
2023/04/21 09:19:43;;;;;;;13.75;10.63;;;;;;;13.57;90.35;100670.78;7784152;18;19993;-72
2023/04/21 09:22:14;;;;;;;17.10;12.13;;;;;;;13.28;88.47;100577.75;7786602;18;20222;-71
2023/04/21 09:24:48;;;;;;;19.48;10.65;;;;;;;13.77;87.23;100652.78;7788717;18;20031;-71
2023/04/21 09:27:18;;;;;;;15.15;10.80;;;;;;;13.78;88.71;100646.56;7745502;18;19997;-70
2023/04/21 09:29:48;;;;;;;18.05;12.38;;;;;;;13.52;86.79;100622.75;7784379;18;20173;-72
2023/04/21 09:32:18;;;;;;;13.63;10.57;;;;;;;13.71;86.74;100637.38;7783773;18;20014;-71
2023/04/21 09:34:45;;;;;;;17.73;12.10;;;;;;;13.63;86.63;100622.06;7744091;18;20008;-72
2023/04/21 09:37:13;;;;;;;13.50;11.85;;;;;;;13.22;86.55;100606.28;7786159;18;20255;-70
2023/04/21 09:39:45;;;;;;;15.75;10.00;;;;;;;13.17;89.93;100633.78;7784876;18;20286;-70
2023/04/21 09:42:31;;;;;;;18.70;11.57;;;;;;;13.26;93.45;100645.53;7785995;18;20190;-71
2023/04/21 09:44:57;;;;;;;14.80;11.32;;;;;;;13.57;90.03;100636.50;7785262;18;20551;-71
2023/04/21 09:47:50;;;;;;;17.05;12.10;;;;;;;13.42;88.16;100613.78;7784575;18;20003;-72
2023/04/21 09:50:17;;;;;;;;;;;;;;;13.35;89.39;100626.50;7745878;18;20227;-71
2023/04/21 09:53:06;;;;;;;28.10;11.95;;;;;;;13.25;90.21;100624.53;7785059;18;20314;-70
2023/04/21 09:55:33;;;;;;;14.32;10.85;;;;;;;13.18;88.96;100597.72;7786314;18;20014;-71
2023/04/21 09:58:01;;;;;;;17.83;10.20;;;;;;;13.20;90.58;100619.56;7785695;18;20403;-73
2023/04/21 10:00:28;;;;;;;14.70;10.95;;;;;;;13.31;89.78;100610.97;7786109;18;20002;-70
2023/04/21 10:02:59;;;;;;;19.27;11.68;;;;;;;13.34;89.91;100594.97;7743846;18;20084;-72
2023/04/21 10:05:27;;;;;;;20.25;12.10;;;;;;;13.31;89.48;100601.31;7787660;18;20001;-70
2023/04/21 10:07:54;;;;;;;15.57;10.95;;;;;;;12.92;91.11;100591.50;7787929;18;20020;-70
2023/04/21 10:10:25;;;;;;;15.30;11.40;;;;;;;13.06;92.01;100598.53;7745028;18;20061;-72
2023/04/21 10:12:52;;;;;;;17.50;12.15;;;;;;;13.55;91.68;100619.94;7787838;18;20327;-72
2023/04/21 10:15:47;;;;;;;19.83;11.05;;;;;;;14.13;88.36;100609.91;7787970;18;20005;-69
2023/04/21 10:18:15;;;;;;;17.83;10.88;;;;;;;13.57;87.42;100560.03;7745654;18;20096;-70
2023/04/21 10:20:52;;;;;;;12.32;10.88;;;;;;;13.65;88.90;100580.63;7784587;18;19998;-71
2023/04/21 10:23:29;;;;;;;21.95;11.38;;;;;;;13.35;88.18;100562.41;7788329;18;20182;-73
2023/04/21 10:26:19;;;;;;;14.73;11.35;;;;;;;13.46;87.97;100562.53;7790873;18;20260;-71
2023/04/21 10:28:53;;;;;;;15.95;10.57;;;;;;;13.74;87.20;100537.78;7787954;18;20001;-70
2023/04/21 10:31:21;;;;;;;21.60;11.93;;;;;;;13.82;86.48;100489.78;7787914;18;20333;-70
2023/04/21 10:34:12;;;;;;;18.08;11.73;;;;;;;14.12;85.81;100536.09;7742730;18;19990;-70
2023/04/21 10:36:45;;;;;;;15.25;11.25;;;;;;;13.98;84.41;100518.59;7787851;18;19998;-69
2023/04/21 10:39:34;;;;;;;;;;;;;;;13.85;85.05;100518.63;7787636;18;20001;-71
2023/04/21 10:42:16;;;;;;;17.60;11.05;;;;;;;13.98;85.06;100525.69;7787144;18;19913;-71
2023/04/21 10:44:43;;;;;;;21.10;11.03;;;;;;;14.33;83.36;100518.78;7785506;18;20012;-70
2023/04/21 10:47:10;;;;;;;17.77;10.70;;;;;;;14.28;81.88;100488.38;7787068;18;20391;-70
2023/04/21 10:49:38;;;;;;;17.45;11.38;;;;;;;13.96;80.85;100458.00;7785013;18;20564;-72
2023/04/21 10:52:07;;;;;;;15.73;9.88;;;;;;;13.90;82.16;100470.81;7785109;18;20486;-70
2023/04/21 10:55:02;;;;;;;13.63;10.77;;;;;;;13.85;82.16;100459.72;7784978;18;19993;-71
2023/04/21 10:57:34;;;;;;;12.68;9.93;;;;;;;12.82;83.18;100303.34;7786834;18;20019;-71
2023/04/21 11:00:00;;;;;;;16.40;10.50;;;;;;;13.50;83.21;100431.38;7785717;18;20005;-70
2023/04/21 11:02:27;;;;;;;16.85;10.52;;;;;;;13.55;84.33;100445.06;7747585;18;20009;-70
2023/04/21 11:04:56;;;;;;;16.08;9.68;;;;;;;13.84;85.09;100465.94;7787445;18;20094;-71
2023/04/21 11:07:23;;;;;;;12.52;8.82;;;;;;;14.15;83.68;100456.72;7745696;18;20006;-70
2023/04/21 11:10:15;;;;;;;15.85;9.90;;;;;;;14.52;80.25;100433.78;7785500;18;20406;-71
2023/04/21 11:12:42;;;;;;;15.02;10.13;;;;;;;14.84;81.22;100429.78;7781052;18;20009;-69
2023/04/21 11:15:12;;;;;;;12.02;9.90;;;;;;;14.75;79.71;100403.09;7748367;18;20121;-70
2023/04/21 11:17:41;;;;;;;16.15;10.48;;;;;;;14.17;81.50;100357.16;7789861;18;20001;-70